Kinyo Maru No.2 — JD3099 — position and weather

sailwx.info

Track history (hours):
 
Tides and Currents Weather Stations Pressure Air Temp Water Temp Dewpoint Dewpoint Depression Visibility Wind Speed Wind Dir Waves Ship Positions

Kinyo Maru No.2

Last reported at 2018-Feb-24 10:15 UTC. Time now 2018-Feb-25 10:05 UTC.
Position N 41°25' E 141°34'.

Length 104 m; draft 5.2 m.

Type: Tanker. MMSI: 431001757.

Date/timePositionNaut miles runAvg speedWind from/ knotsBaromVisibWave heightAir tempDewpointWater temp
2018-Feb-24 10:15N 41°25' E 141°34'415.4
2018-Feb-24 10:00N 41°29' E 141°32'815.0
2018-Feb-24 09:30N 41°35' E 141°27'713.4
2018-Feb-24 09:00N 41°41' E 141°22'714.2
2018-Feb-24 08:29N 41°47' E 141°18'16 0.6
2018-Feb-23 04:13N 41°33' E 141°28'412.3
2018-Feb-23 03:55N 41°29' E 141°30'6 0.1
2018-Feb-21 06:39N 41°24' E 141°34'215.3
2018-Feb-21 06:29N 41°26' E 141°33'715.4
2018-Feb-21 06:01N 41°33' E 141°29'714.2
2018-Feb-21 05:30N 41°39' E 141°24'714.2
2018-Feb-21 05:00N 41°45' E 141°19'714.1
2018-Feb-21 04:31N 41°51' E 141°14'3 0.2
2018-Feb-20 16:36N 41°49' E 141°17'112.4
2018-Feb-20 16:30N 41°48' E 141°17'612.4
2018-Feb-20 15:59N 41°42' E 141°21'713.0
2018-Feb-20 15:25N 41°36' E 141°26'612.0
2018-Feb-20 14:53N 41°30' E 141°30'411.2
2018-Feb-20 14:30N 41°26' E 141°32'391 7.7
2018-Feb-18 11:45N 35°00' E 140°12'312.9
2018-Feb-18 11:30N 34°59' E 140°08'1812.8
2018-Feb-18 10:06N 34°52' E 139°48'315.6
2018-Feb-18 09:57N 34°55' E 139°46'713.8
2018-Feb-18 09:27N 35°01' E 139°43'614.0
2018-Feb-18 09:01N 35°07' E 139°45'713.9
2018-Feb-18 08:30N 35°14' E 139°46'612.5
2018-Feb-18 08:00N 35°20' E 139°43'611.6
2018-Feb-18 07:30N 35°25' E 139°39'0 0.2
2018-Feb-18 06:58N 35°25' E 139°39'0 0.0
2018-Feb-18 06:28N 35°25' E 139°39'0 0.0
2018-Feb-18 05:58N 35°25' E 139°39'0 0.0
2018-Feb-18 05:28N 35°25' E 139°39'0 0.0
2018-Feb-18 04:58N 35°25' E 139°39'0 0.0
2018-Feb-18 04:28N 35°25' E 139°39'0 0.0
2018-Feb-18 03:55N 35°25' E 139°39'0 0.0
2018-Feb-18 03:25N 35°25' E 139°39'0 0.0
2018-Feb-18 02:58N 35°25' E 139°39'0 0.0
2018-Feb-18 02:28N 35°25' E 139°39'0 0.1
2018-Feb-18 02:01N 35°25' E 139°39'4 8.3
2018-Feb-18 01:30N 35°21' E 139°42'612.1
2018-Feb-18 01:00N 35°16' E 139°46'611.3
2018-Feb-18 00:30N 35°10' E 139°46'611.9
2018-Feb-18 00:00N 35°05' E 139°43'713.4
2018-Feb-17 23:30N 35°01' E 139°37'1114.1
2018-Feb-17 22:45N 34°54' E 139°27'613.7
2018-Feb-17 22:21N 34°50' E 139°22'513.0
2018-Feb-17 22:00N 34°48' E 139°17'1013.0
2018-Feb-17 21:15N 34°41' E 139°09'412.7
2018-Feb-17 20:59N 34°39' E 139°06'612.5
2018-Feb-17 20:29N 34°34' E 139°00'612.2
2018-Feb-17 19:57N 34°32' E 138°53'1114.0
2018-Feb-17 19:11N 34°32' E 138°40'213.5
2018-Feb-17 19:00N 34°32' E 138°37'713.7
2018-Feb-17 18:30N 34°31' E 138°28'814.4
2018-Feb-17 17:58N 34°31' E 138°19'914.8
2018-Feb-17 17:21N 34°31' E 138°08'514.1
2018-Feb-17 16:58N 34°32' E 138°01'3713.6
2018-Feb-17 14:14N 34°32' E 137°17'414.0
2018-Feb-17 13:59N 34°32' E 137°12'1313.8
2018-Feb-17 13:01N 34°36' E 136°57'614.5
2018-Feb-17 12:36N 34°39' E 136°51'313.8
2018-Feb-17 12:25N 34°41' E 136°49'614.4
2018-Feb-17 11:59N 34°47' E 136°46'714.3
2018-Feb-17 11:31N 34°54' E 136°46'713.3
2018-Feb-17 11:00N 34°60' E 136°49'1 2.3
2018-Feb-17 10:30N 34°60' E 136°51'0 0.0
2018-Feb-17 09:59N 34°60' E 136°51'0 0.0
2018-Feb-17 09:30N 34°60' E 136°51'0 0.0
2018-Feb-17 09:00N 34°60' E 136°51'0 0.0
2018-Feb-17 08:30N 34°60' E 136°51'0 0.0
2018-Feb-17 07:59N 34°60' E 136°51'0 0.0
2018-Feb-17 07:29N 34°60' E 136°51'0 0.0
2018-Feb-17 07:00N 34°60' E 136°51'0 0.0
2018-Feb-17 06:29N 34°60' E 136°51'0 0.0
2018-Feb-17 06:00N 34°60' E 136°51'0 0.0
2018-Feb-17 05:29N 34°60' E 136°51'0 0.0
2018-Feb-17 04:59N 34°60' E 136°51'0 0.0
2018-Feb-17 04:29N 34°60' E 136°51'0 0.0
2018-Feb-17 03:59N 34°60' E 136°51'0 0.0
2018-Feb-17 03:29N 34°60' E 136°51'0 0.0
2018-Feb-17 03:00N 34°60' E 136°51'0 0.0
2018-Feb-17 02:29N 34°60' E 136°51'0 0.0
2018-Feb-17 02:00N 34°60' E 136°51'0 0.0
2018-Feb-17 01:29N 34°60' E 136°51'0 0.0
2018-Feb-17 01:00N 34°60' E 136°51'0 0.0
2018-Feb-17 00:30N 34°60' E 136°51'2 4.8
2018-Feb-17 00:00N 34°58' E 136°48'2 3.3
2018-Feb-16 23:30N 34°58' E 136°47'0 0.0
2018-Feb-16 23:00N 34°58' E 136°47'0 0.0
2018-Feb-16 22:30N 34°58' E 136°47'0 0.1
2018-Feb-16 22:00N 34°58' E 136°47'0 0.1
2018-Feb-16 21:30N 34°58' E 136°47'0 0.1
2018-Feb-16 21:00N 34°58' E 136°47'0 0.1
2018-Feb-16 20:30N 34°58' E 136°47'0 0.1
2018-Feb-16 19:57N 34°58' E 136°47'0 0.0
2018-Feb-16 19:30N 34°58' E 136°47'0 0.0
2018-Feb-16 19:00N 34°58' E 136°47'0 0.1
2018-Feb-16 18:30N 34°58' E 136°47'1 2.0
2018-Feb-16 18:00N 34°57' E 136°46'713.5
2018-Feb-16 17:30N 34°50' E 136°47'713.6
2018-Feb-16 17:00N 34°43' E 136°50'813.5
2018-Feb-16 16:22N 34°37' E 136°56'613.7
2018-Feb-16 15:54N 34°32' E 137°02'10510.4
2018-Feb-16 05:46N 33°47' E 135°08'414.2
2018-Feb-16 05:30N 33°50' E 135°05'713.7
2018-Feb-16 05:00N 33°56' E 135°01'714.4
2018-Feb-16 04:30N 34°03' E 135°03'713.3
2018-Feb-16 04:00N 34°09' E 135°07'2 3.3
2018-Feb-16 03:29N 34°09' E 135°09'1 2.1
2018-Feb-16 03:01N 34°09' E 135°10'2 0.7
2018-Feb-16 00:29N 34°09' E 135°12'0 0.0
2018-Feb-15 23:11N 34°09' E 135°12'0 0.0
2018-Feb-15 22:57N 34°09' E 135°12'1 2.1
2018-Feb-15 22:31N 34°09' E 135°11'2 3.4
2018-Feb-15 22:01N 34°09' E 135°09'0 0.1
2018-Feb-15 21:30N 34°09' E 135°09'0 0.0
2018-Feb-15 21:01N 34°09' E 135°09'0 0.0
2018-Feb-15 20:30N 34°09' E 135°09'0 0.0
2018-Feb-15 20:00N 34°09' E 135°09'0 0.0
2018-Feb-15 19:30N 34°09' E 135°09'0 0.0
2018-Feb-15 19:01N 34°09' E 135°09'0 0.0
2018-Feb-15 18:30N 34°09' E 135°09'0 0.1
2018-Feb-15 18:00N 34°09' E 135°09'0 0.0
2018-Feb-15 17:30N 34°09' E 135°09'0 0.0
2018-Feb-15 17:00N 34°09' E 135°09'0 0.0
2018-Feb-15 16:30N 34°09' E 135°09'0 0.0
2018-Feb-15 16:00N 34°09' E 135°09'0 0.0
2018-Feb-15 15:30N 34°09' E 135°09'0 0.0
2018-Feb-15 15:00N 34°09' E 135°09'0 0.2
2018-Feb-15 14:30N 34°09' E 135°09'611.7
2018-Feb-15 14:01N 34°09' E 135°02'612.6
2018-Feb-15 13:30N 34°08' E 134°54'713.3
2018-Feb-15 13:00N 34°09' E 134°46'713.5
2018-Feb-15 12:31N 34°13' E 134°40'612.2
2018-Feb-15 12:00N 34°17' E 134°34'612.5
2018-Feb-15 11:30N 34°19' E 134°27'613.0
2018-Feb-15 11:00N 34°21' E 134°20'17 1.0
2018-Feb-14 17:08N 34°26' E 133°59'312.1
2018-Feb-14 16:53N 34°27' E 134°03'511.8
2018-Feb-14 16:27N 34°26' E 134°09'511.7
2018-Feb-14 16:00N 34°24' E 134°15'612.7
2018-Feb-14 15:30N 34°25' E 134°23'713.6
2018-Feb-14 15:00N 34°28' E 134°30'713.3
2018-Feb-14 14:30N 34°30' E 134°38'713.3
2018-Feb-14 14:00N 34°33' E 134°45'713.6
2018-Feb-14 13:30N 34°35' E 134°53'713.7
2018-Feb-14 13:01N 34°38' E 135°01'611.6
2018-Feb-14 12:31N 34°33' E 135°05'714.2
2018-Feb-14 12:00N 34°26' E 135°02'714.1
2018-Feb-14 11:30N 34°19' E 134°60'612.4
2018-Feb-14 11:00N 34°13' E 135°02'713.5
2018-Feb-14 10:30N 34°09' E 135°09'  
Track history (hours):
 
Tides and Currents Weather Stations Pressure Air Temp Water Temp Dewpoint Dewpoint Depression Visibility Wind Speed Wind Dir Waves Ship Positions

Kinyo Maru No.2

Last reported at 2018-Feb-24 10:15 UTC. Time now 2018-Feb-25 10:05 UTC.
Position N 41°25' E 141°34'.

Length 104 m; draft 5.2 m.

Type: Tanker. MMSI: 431001757.

Date/timePositionNaut miles runAvg speedWind from/ knotsBaromVisibWave heightAir tempDewpointWater temp
2018-Feb-24 10:15N 41°25' E 141°34'415.4
2018-Feb-24 10:00N 41°29' E 141°32'815.0
2018-Feb-24 09:30N 41°35' E 141°27'713.4
2018-Feb-24 09:00N 41°41' E 141°22'714.2
2018-Feb-24 08:29N 41°47' E 141°18'16 0.6
2018-Feb-23 04:13N 41°33' E 141°28'412.3
2018-Feb-23 03:55N 41°29' E 141°30'6 0.1
2018-Feb-21 06:39N 41°24' E 141°34'215.3
2018-Feb-21 06:29N 41°26' E 141°33'715.4
2018-Feb-21 06:01N 41°33' E 141°29'714.2
2018-Feb-21 05:30N 41°39' E 141°24'714.2
2018-Feb-21 05:00N 41°45' E 141°19'714.1
2018-Feb-21 04:31N 41°51' E 141°14'3 0.2
2018-Feb-20 16:36N 41°49' E 141°17'112.4
2018-Feb-20 16:30N 41°48' E 141°17'612.4
2018-Feb-20 15:59N 41°42' E 141°21'713.0
2018-Feb-20 15:25N 41°36' E 141°26'612.0
2018-Feb-20 14:53N 41°30' E 141°30'411.2
2018-Feb-20 14:30N 41°26' E 141°32'391 7.7
2018-Feb-18 11:45N 35°00' E 140°12'312.9
2018-Feb-18 11:30N 34°59' E 140°08'1812.8
2018-Feb-18 10:06N 34°52' E 139°48'315.6
2018-Feb-18 09:57N 34°55' E 139°46'713.8
2018-Feb-18 09:27N 35°01' E 139°43'614.0
2018-Feb-18 09:01N 35°07' E 139°45'713.9
2018-Feb-18 08:30N 35°14' E 139°46'612.5
2018-Feb-18 08:00N 35°20' E 139°43'611.6
2018-Feb-18 07:30N 35°25' E 139°39'0 0.2
2018-Feb-18 06:58N 35°25' E 139°39'0 0.0
2018-Feb-18 06:28N 35°25' E 139°39'0 0.0
2018-Feb-18 05:58N 35°25' E 139°39'0 0.0
2018-Feb-18 05:28N 35°25' E 139°39'0 0.0
2018-Feb-18 04:58N 35°25' E 139°39'0 0.0
2018-Feb-18 04:28N 35°25' E 139°39'0 0.0
2018-Feb-18 03:55N 35°25' E 139°39'0 0.0
2018-Feb-18 03:25N 35°25' E 139°39'0 0.0
2018-Feb-18 02:58N 35°25' E 139°39'0 0.0
2018-Feb-18 02:28N 35°25' E 139°39'0 0.1
2018-Feb-18 02:01N 35°25' E 139°39'4 8.3
2018-Feb-18 01:30N 35°21' E 139°42'612.1
2018-Feb-18 01:00N 35°16' E 139°46'611.3
2018-Feb-18 00:30N 35°10' E 139°46'611.9
2018-Feb-18 00:00N 35°05' E 139°43'713.4
2018-Feb-17 23:30N 35°01' E 139°37'1114.1
2018-Feb-17 22:45N 34°54' E 139°27'613.7
2018-Feb-17 22:21N 34°50' E 139°22'513.0
2018-Feb-17 22:00N 34°48' E 139°17'1013.0
2018-Feb-17 21:15N 34°41' E 139°09'412.7
2018-Feb-17 20:59N 34°39' E 139°06'612.5
2018-Feb-17 20:29N 34°34' E 139°00'612.2
2018-Feb-17 19:57N 34°32' E 138°53'1114.0
2018-Feb-17 19:11N 34°32' E 138°40'213.5
2018-Feb-17 19:00N 34°32' E 138°37'713.7
2018-Feb-17 18:30N 34°31' E 138°28'814.4
2018-Feb-17 17:58N 34°31' E 138°19'914.8
2018-Feb-17 17:21N 34°31' E 138°08'514.1
2018-Feb-17 16:58N 34°32' E 138°01'3713.6
2018-Feb-17 14:14N 34°32' E 137°17'414.0
2018-Feb-17 13:59N 34°32' E 137°12'1313.8
2018-Feb-17 13:01N 34°36' E 136°57'614.5
2018-Feb-17 12:36N 34°39' E 136°51'313.8
2018-Feb-17 12:25N 34°41' E 136°49'614.4
2018-Feb-17 11:59N 34°47' E 136°46'714.3
2018-Feb-17 11:31N 34°54' E 136°46'713.3
2018-Feb-17 11:00N 34°60' E 136°49'1 2.3
2018-Feb-17 10:30N 34°60' E 136°51'0 0.0
2018-Feb-17 09:59N 34°60' E 136°51'0 0.0
2018-Feb-17 09:30N 34°60' E 136°51'0 0.0
2018-Feb-17 09:00N 34°60' E 136°51'0 0.0
2018-Feb-17 08:30N 34°60' E 136°51'0 0.0
2018-Feb-17 07:59N 34°60' E 136°51'0 0.0
2018-Feb-17 07:29N 34°60' E 136°51'0 0.0
2018-Feb-17 07:00N 34°60' E 136°51'0 0.0
2018-Feb-17 06:29N 34°60' E 136°51'0 0.0
2018-Feb-17 06:00N 34°60' E 136°51'0 0.0
2018-Feb-17 05:29N 34°60' E 136°51'0 0.0
2018-Feb-17 04:59N 34°60' E 136°51'0 0.0
2018-Feb-17 04:29N 34°60' E 136°51'0 0.0
2018-Feb-17 03:59N 34°60' E 136°51'0 0.0
2018-Feb-17 03:29N 34°60' E 136°51'0 0.0
2018-Feb-17 03:00N 34°60' E 136°51'0 0.0
2018-Feb-17 02:29N 34°60' E 136°51'0 0.0
2018-Feb-17 02:00N 34°60' E 136°51'0 0.0
2018-Feb-17 01:29N 34°60' E 136°51'0 0.0
2018-Feb-17 01:00N 34°60' E 136°51'0 0.0
2018-Feb-17 00:30N 34°60' E 136°51'2 4.8
2018-Feb-17 00:00N 34°58' E 136°48'2 3.3
2018-Feb-16 23:30N 34°58' E 136°47'0 0.0
2018-Feb-16 23:00N 34°58' E 136°47'0 0.0
2018-Feb-16 22:30N 34°58' E 136°47'0 0.1
2018-Feb-16 22:00N 34°58' E 136°47'0 0.1
2018-Feb-16 21:30N 34°58' E 136°47'0 0.1
2018-Feb-16 21:00N 34°58' E 136°47'0 0.1
2018-Feb-16 20:30N 34°58' E 136°47'0 0.1
2018-Feb-16 19:57N 34°58' E 136°47'0 0.0
2018-Feb-16 19:30N 34°58' E 136°47'0 0.0
2018-Feb-16 19:00N 34°58' E 136°47'0 0.1
2018-Feb-16 18:30N 34°58' E 136°47'1 2.0
2018-Feb-16 18:00N 34°57' E 136°46'713.5
2018-Feb-16 17:30N 34°50' E 136°47'713.6
2018-Feb-16 17:00N 34°43' E 136°50'813.5
2018-Feb-16 16:22N 34°37' E 136°56'613.7
2018-Feb-16 15:54N 34°32' E 137°02'10510.4
2018-Feb-16 05:46N 33°47' E 135°08'414.2
2018-Feb-16 05:30N 33°50' E 135°05'713.7
2018-Feb-16 05:00N 33°56' E 135°01'714.4
2018-Feb-16 04:30N 34°03' E 135°03'713.3
2018-Feb-16 04:00N 34°09' E 135°07'2 3.3
2018-Feb-16 03:29N 34°09' E 135°09'1 2.1
2018-Feb-16 03:01N 34°09' E 135°10'2 0.7
2018-Feb-16 00:29N 34°09' E 135°12'0 0.0
2018-Feb-15 23:11N 34°09' E 135°12'0 0.0
2018-Feb-15 22:57N 34°09' E 135°12'1 2.1
2018-Feb-15 22:31N 34°09' E 135°11'2 3.4
2018-Feb-15 22:01N 34°09' E 135°09'0 0.1
2018-Feb-15 21:30N 34°09' E 135°09'0 0.0
2018-Feb-15 21:01N 34°09' E 135°09'0 0.0
2018-Feb-15 20:30N 34°09' E 135°09'0 0.0
2018-Feb-15 20:00N 34°09' E 135°09'0 0.0
2018-Feb-15 19:30N 34°09' E 135°09'0 0.0
2018-Feb-15 19:01N 34°09' E 135°09'0 0.0
2018-Feb-15 18:30N 34°09' E 135°09'0 0.1
2018-Feb-15 18:00N 34°09' E 135°09'0 0.0
2018-Feb-15 17:30N 34°09' E 135°09'0 0.0
2018-Feb-15 17:00N 34°09' E 135°09'0 0.0
2018-Feb-15 16:30N 34°09' E 135°09'0 0.0
2018-Feb-15 16:00N 34°09' E 135°09'0 0.0
2018-Feb-15 15:30N 34°09' E 135°09'0 0.0
2018-Feb-15 15:00N 34°09' E 135°09'0 0.2
2018-Feb-15 14:30N 34°09' E 135°09'611.7
2018-Feb-15 14:01N 34°09' E 135°02'612.6
2018-Feb-15 13:30N 34°08' E 134°54'713.3
2018-Feb-15 13:00N 34°09' E 134°46'713.5
2018-Feb-15 12:31N 34°13' E 134°40'612.2
2018-Feb-15 12:00N 34°17' E 134°34'612.5
2018-Feb-15 11:30N 34°19' E 134°27'613.0
2018-Feb-15 11:00N 34°21' E 134°20'17 1.0
2018-Feb-14 17:08N 34°26' E 133°59'312.1
2018-Feb-14 16:53N 34°27' E 134°03'511.8
2018-Feb-14 16:27N 34°26' E 134°09'511.7
2018-Feb-14 16:00N 34°24' E 134°15'612.7
2018-Feb-14 15:30N 34°25' E 134°23'713.6
2018-Feb-14 15:00N 34°28' E 134°30'713.3
2018-Feb-14 14:30N 34°30' E 134°38'713.3
2018-Feb-14 14:00N 34°33' E 134°45'713.6
2018-Feb-14 13:30N 34°35' E 134°53'713.7
2018-Feb-14 13:01N 34°38' E 135°01'611.6
2018-Feb-14 12:31N 34°33' E 135°05'714.2
2018-Feb-14 12:00N 34°26' E 135°02'714.1
2018-Feb-14 11:30N 34°19' E 134°60'612.4
2018-Feb-14 11:00N 34°13' E 135°02'713.5
2018-Feb-14 10:30N 34°09' E 135°09'  

Dump ship's entire track history